Time;durP1;ratioP1;P1;durP2;ratioP2;P2;SDS_P1;SDS_P2;PMS_P1;PMS_P2;Temp;Humidity;BMP_temperature;BMP_pressure;BME280_temperature;BME280_humidity;BME280_pressure;Samples;Min_cycle;Max_cycle;Signal;HPM_P1;HPM_P2
2021/10/29 00:01:13;;;;;;;4.80;1.95;;;19.20;88.20;;;;;;5028333;28;20018;-77
2021/10/29 00:03:39;;;;;;;4.97;2.15;;;19.20;87.70;;;;;;5028053;28;20029;-78
2021/10/29 00:06:05;;;;;;;2.58;1.65;;;19.20;87.80;;;;;;5028341;28;20078;-76
2021/10/29 00:08:31;;;;;;;5.32;2.03;;;19.20;87.70;;;;;;5028167;28;20025;-76
2021/10/29 00:10:57;;;;;;;3.05;1.90;;;19.20;87.80;;;;;;5028206;28;20089;-76
2021/10/29 00:13:22;;;;;;;3.15;1.98;;;19.10;87.70;;;;;;5028508;28;20477;-77
2021/10/29 00:15:48;;;;;;;3.22;2.00;;;19.20;87.70;;;;;;5027897;28;20518;-79
2021/10/29 00:18:14;;;;;;;4.63;2.72;;;19.20;87.60;;;;;;5028249;28;20017;-76
2021/10/29 00:20:39;;;;;;;3.45;2.15;;;19.20;87.60;;;;;;5027993;28;20037;-76
2021/10/29 00:23:05;;;;;;;2.95;2.03;;;19.10;87.40;;;;;;5026743;28;20037;-76
2021/10/29 00:25:31;;;;;;;4.38;2.10;;;19.10;87.60;;;;;;5027823;28;20033;-77
2021/10/29 00:27:56;;;;;;;3.70;1.90;;;19.10;87.20;;;;;;5028209;28;20029;-78
2021/10/29 00:30:22;;;;;;;3.63;1.80;;;19.10;87.10;;;;;;5028174;28;20017;-77
2021/10/29 00:32:48;;;;;;;3.95;2.20;;;19.10;87.00;;;;;;5027734;28;20037;-77
2021/10/29 00:35:14;;;;;;;2.42;1.85;;;19.10;86.90;;;;;;5031001;28;20021;-77
2021/10/29 00:37:40;;;;;;;4.78;2.22;;;19.10;86.80;;;;;;5031281;28;20098;-77
2021/10/29 00:40:08;;;;;;;3.13;1.77;;;19.10;86.70;;;;;;5031465;28;20049;-79
2021/10/29 00:42:35;;;;;;;2.45;1.77;;;19.10;86.60;;;;;;5029708;28;20477;-77
2021/10/29 00:45:01;;;;;;;4.13;1.88;;;19.10;86.50;;;;;;5031201;28;20078;-78
2021/10/29 00:47:26;;;;;;;3.95;2.10;;;19.10;86.50;;;;;;5030442;28;20133;-77
2021/10/29 00:49:52;;;;;;;3.03;2.00;;;19.10;86.30;;;;;;5031578;28;20033;-79
2021/10/29 00:52:17;;;;;;;2.92;1.83;;;19.00;86.30;;;;;;5031256;28;20022;-77
2021/10/29 00:54:43;;;;;;;2.53;1.98;;;19.00;86.00;;;;;;5029650;28;20018;-78
2021/10/29 00:57:09;;;;;;;4.25;2.15;;;19.00;85.90;;;;;;5030938;28;20033;-78
2021/10/29 00:59:35;;;;;;;3.95;2.33;;;19.00;85.80;;;;;;5029561;28;20026;-78
2021/10/29 01:02:01;;;;;;;2.88;1.80;;;19.00;85.70;;;;;;5031020;28;20029;-80
2021/10/29 01:04:27;;;;;;;3.10;1.95;;;19.00;85.70;;;;;;5030905;28;20052;-77
2021/10/29 01:06:53;;;;;;;2.55;2.15;;;19.00;85.60;;;;;;5031360;28;20389;-80
2021/10/29 01:09:19;;;;;;;3.80;1.83;;;19.00;85.60;;;;;;5030968;28;20025;-81
2021/10/29 01:11:44;;;;;;;3.22;1.90;;;19.00;85.50;;;;;;5029378;28;20501;-80
2021/10/29 01:14:10;;;;;;;3.53;2.38;;;19.00;85.40;;;;;;5030823;28;20029;-78
2021/10/29 01:16:37;;;;;;;2.25;1.67;;;19.00;85.30;;;;;;5029471;28;20053;-77
2021/10/29 01:19:03;;;;;;;3.38;2.20;;;19.00;85.20;;;;;;5029724;28;20073;-77
2021/10/29 01:21:28;;;;;;;3.83;1.90;;;19.00;85.10;;;;;;5030639;28;20025;-79
2021/10/29 01:23:54;;;;;;;2.83;1.67;;;18.90;85.10;;;;;;5030819;28;20041;-77
2021/10/29 01:26:20;;;;;;;3.83;2.00;;;18.90;85.00;;;;;;5030749;28;20021;-80
2021/10/29 01:28:46;;;;;;;4.20;2.33;;;18.90;85.00;;;;;;5030358;28;20534;-79
2021/10/29 01:31:13;;;;;;;3.55;2.22;;;18.90;84.80;;;;;;5029445;28;20481;-80
2021/10/29 01:33:39;;;;;;;2.47;1.98;;;18.90;84.70;;;;;;5030443;28;20029;-79
2021/10/29 01:36:05;;;;;;;3.45;2.22;;;18.90;84.60;;;;;;5030632;28;20021;-82
2021/10/29 01:38:33;;;;;;;3.17;1.90;;;18.90;84.50;;;;;;5030429;28;20047;-79
2021/10/29 01:40:59;;;;;;;3.05;2.10;;;18.90;84.40;;;;;;5030528;28;20066;-77
2021/10/29 01:43:25;;;;;;;2.70;2.10;;;18.90;84.30;;;;;;5030587;28;20030;-78
2021/10/29 01:45:51;;;;;;;3.72;1.98;;;18.90;84.20;;;;;;5028912;28;20040;-80
2021/10/29 01:48:16;;;;;;;2.92;2.30;;;18.90;84.20;;;;;;5030463;28;20037;-79
2021/10/29 01:50:42;;;;;;;2.38;1.70;;;18.90;84.10;;;;;;5030072;28;20029;-80
2021/10/29 01:53:08;;;;;;;5.00;2.20;;;18.80;83.90;;;;;;5030316;28;20112;-79
2021/10/29 01:55:34;;;;;;;2.65;1.88;;;18.80;83.80;;;;;;5029997;28;20024;-77
2021/10/29 01:57:59;;;;;;;3.30;2.00;;;18.80;83.80;;;;;;5030150;28;20380;-78
2021/10/29 02:00:25;;;;;;;4.25;2.10;;;18.80;83.70;;;;;;5030434;28;20033;-78
2021/10/29 02:02:50;;;;;;;3.92;2.15;;;18.80;83.60;;;;;;5029842;28;20034;-78
2021/10/29 02:05:17;;;;;;;3.40;2.67;;;18.80;83.60;;;;;;5030228;28;20053;-78
2021/10/29 02:07:42;;;;;;;3.13;2.28;;;18.70;83.50;;;;;;5029814;28;20029;-78
2021/10/29 02:10:09;;;;;;;3.17;1.83;;;18.80;83.60;;;;;;5030048;28;20537;-78
2021/10/29 02:12:34;;;;;;;3.70;2.47;;;18.80;83.60;;;;;;5029783;28;20587;-77
2021/10/29 02:15:00;;;;;;;3.30;1.80;;;18.80;83.50;;;;;;5029962;28;20112;-77
2021/10/29 02:17:26;;;;;;;3.97;2.17;;;18.80;83.40;;;;;;5028907;28;20086;-77
2021/10/29 02:19:52;;;;;;;3.42;1.90;;;18.70;84.00;;;;;;5030206;28;20159;-78
2021/10/29 02:22:18;;;;;;;4.35;2.63;;;18.80;83.30;;;;;;5029902;28;20032;-78
2021/10/29 02:24:44;;;;;;;3.28;1.95;;;18.80;83.30;;;;;;5029572;28;20443;-77
2021/10/29 02:27:09;;;;;;;3.30;2.03;;;18.80;83.20;;;;;;5029736;28;20394;-77
2021/10/29 02:29:35;;;;;;;4.30;2.00;;;18.80;83.20;;;;;;5029470;28;20021;-77
2021/10/29 02:32:02;;;;;;;3.17;2.10;;;18.70;83.00;;;;;;5029750;28;20029;-77
2021/10/29 02:34:27;;;;;;;3.88;2.65;;;18.70;83.00;;;;;;5029435;28;20036;-77
2021/10/29 02:36:54;;;;;;;2.58;2.10;;;18.70;83.00;;;;;;5029966;28;20100;-77
2021/10/29 02:39:19;;;;;;;3.80;2.03;;;18.70;82.90;;;;;;5029535;28;20030;-77
2021/10/29 02:41:45;;;;;;;2.85;1.88;;;18.70;82.90;;;;;;5029308;28;20029;-77
2021/10/29 02:44:11;;;;;;;4.50;2.20;;;18.70;82.80;;;;;;5029543;28;20048;-78
2021/10/29 02:46:37;;;;;;;3.25;1.90;;;18.70;82.90;;;;;;5029123;28;20064;-77
2021/10/29 02:49:04;;;;;;;3.25;1.95;;;18.70;82.80;;;;;;5029517;28;20545;-77
2021/10/29 02:51:30;;;;;;;3.42;2.10;;;18.70;82.70;;;;;;5029120;28;20393;-78
2021/10/29 02:53:57;;;;;;;2.55;1.92;;;18.70;82.60;;;;;;5029650;28;20029;-77
2021/10/29 02:56:22;;;;;;;3.58;2.40;;;18.70;82.70;;;;;;5029258;28;20026;-78
2021/10/29 02:58:48;;;;;;;3.35;2.05;;;18.70;82.50;;;;;;5029116;28;20024;-77
2021/10/29 03:01:14;;;;;;;5.30;2.33;;;18.60;82.50;;;;;;5029309;28;20030;-78
2021/10/29 03:03:40;;;;;;;3.95;2.28;;;18.60;82.40;;;;;;5028917;28;20401;-77
2021/10/29 03:06:05;;;;;;;3.75;2.55;;;18.60;82.50;;;;;;5029235;28;20049;-79
2021/10/29 03:08:31;;;;;;;4.13;2.30;;;18.60;82.40;;;;;;5029071;28;20022;-77
2021/10/29 03:10:57;;;;;;;4.68;2.70;;;18.60;82.30;;;;;;5028987;28;20036;-78
2021/10/29 03:13:24;;;;;;;3.25;1.95;;;18.60;82.30;;;;;;5029432;28;20485;-78
2021/10/29 03:15:50;;;;;;;4.25;2.42;;;18.60;82.30;;;;;;5027483;28;20028;-77
2021/10/29 03:18:17;;;;;;;4.20;2.30;;;18.60;82.30;;;;;;5029144;28;20385;-81
2021/10/29 03:20:44;;;;;;;3.88;2.70;;;18.60;82.30;;;;;;5028790;28;20071;-77
2021/10/29 03:23:12;;;;;;;4.25;2.22;;;18.50;82.10;;;;;;5028881;28;20030;-77
2021/10/29 03:25:38;;;;;;;3.92;2.70;;;18.60;82.20;;;;;;5028495;28;20556;-77
2021/10/29 03:28:04;;;;;;;3.83;2.63;;;18.60;82.00;;;;;;5028851;28;20097;-78
2021/10/29 03:30:30;;;;;;;5.80;2.80;;;18.50;82.00;;;;;;5028538;28;20052;-78
2021/10/29 03:32:57;;;;;;;5.07;2.28;;;18.50;82.00;;;;;;5029114;28;20064;-80
2021/10/29 03:35:22;;;;;;;4.10;2.83;;;18.50;82.00;;;;;;5029081;28;20560;-77
2021/10/29 03:43:22;;;;;;;4.40;2.70;;;18.50;81.90;;;;;;5028532;28;20118;-77
2021/10/29 03:45:54;;;;;;;4.20;2.40;;;18.50;81.80;;;;;;5028276;28;20081;-78
2021/10/29 03:48:30;;;;;;;4.32;2.60;;;18.50;81.80;;;;;;5028416;28;20038;-80
2021/10/29 03:51:45;;;;;;;4.22;2.47;;;18.50;81.70;;;;;;5028740;28;20100;-77
2021/10/29 03:53:49;;;;;;;4.10;2.50;;;18.50;81.70;;;;;;5021151;28;20030;-77
2021/10/29 03:56:20;;;;;;;4.55;2.70;;;18.50;81.70;;;;;;5027240;28;20573;-77
2021/10/29 03:58:50;;;;;;;3.85;2.30;;;18.50;81.70;;;;;;5028121;28;20405;-77
2021/10/29 04:01:17;;;;;;;4.30;2.40;;;18.40;81.60;;;;;;5028492;28;20212;-79
2021/10/29 04:03:43;;;;;;;3.78;2.42;;;18.50;81.60;;;;;;5028137;28;20446;-78
2021/10/29 04:06:10;;;;;;;4.72;2.60;;;18.40;81.50;;;;;;5028365;28;20026;-77
2021/10/29 04:08:36;;;;;;;3.40;2.20;;;18.40;81.50;;;;;;5027344;28;20048;-81
2021/10/29 04:11:01;;;;;;;4.07;2.50;;;18.40;81.50;;;;;;5028418;28;20097;-77
2021/10/29 04:13:28;;;;;;;3.45;2.33;;;18.40;81.40;;;;;;5027966;28;20022;-78
2021/10/29 04:15:54;;;;;;;5.05;2.88;;;18.40;81.40;;;;;;5028473;28;20018;-79
2021/10/29 04:18:20;;;;;;;3.67;2.60;;;18.40;81.40;;;;;;5028292;28;20033;-77
2021/10/29 04:20:46;;;;;;;3.55;2.45;;;18.40;81.30;;;;;;5027809;28;20104;-78
2021/10/29 04:23:11;;;;;;;4.22;2.50;;;18.40;81.30;;;;;;5028115;28;20045;-78
2021/10/29 04:25:37;;;;;;;3.58;2.40;;;18.40;81.30;;;;;;5027814;28;20460;-79
2021/10/29 04:28:10;;;;;;;3.28;2.20;;;18.40;81.20;;;;;;5028048;28;20108;-80
2021/10/29 04:30:36;;;;;;;3.53;2.50;;;18.30;81.20;;;;;;5027822;28;20487;-79
2021/10/29 04:33:06;;;;;;;4.55;2.70;;;18.40;81.20;;;;;;5028060;28;20054;-79
2021/10/29 04:35:33;;;;;;;3.33;2.13;;;18.30;81.10;;;;;;5027848;28;20025;-79
2021/10/29 04:37:59;;;;;;;4.95;2.33;;;18.30;81.10;;;;;;5028030;28;20503;-78
2021/10/29 04:40:25;;;;;;;4.55;2.92;;;18.40;81.10;;;;;;5026975;28;20086;-78
2021/10/29 04:42:50;;;;;;;3.20;2.30;;;18.30;81.00;;;;;;5027750;28;20477;-77
2021/10/29 04:45:16;;;;;;;4.32;2.60;;;18.30;81.00;;;;;;5027677;28;20033;-79
2021/10/29 04:47:42;;;;;;;3.40;2.45;;;18.30;81.10;;;;;;5027593;28;20074;-80
2021/10/29 04:50:08;;;;;;;5.28;2.67;;;18.30;81.00;;;;;;5027846;28;20021;-78
2021/10/29 04:52:33;;;;;;;4.53;2.72;;;18.30;81.00;;;;;;5027599;28;20028;-78
2021/10/29 04:54:59;;;;;;;4.00;2.60;;;18.30;81.00;;;;;;5026385;28;20068;-78
2021/10/29 04:57:25;;;;;;;3.22;2.50;;;18.30;81.00;;;;;;5028321;28;20037;-78
2021/10/29 04:59:51;;;;;;;5.20;2.60;;;18.30;81.00;;;;;;5027528;28;20400;-77
2021/10/29 05:02:16;;;;;;;3.95;2.50;;;18.30;80.90;;;;;;5027741;28;20540;-77
2021/10/29 05:04:42;;;;;;;4.10;2.55;;;18.30;80.80;;;;;;5027398;28;20097;-77
2021/10/29 05:07:07;;;;;;;4.10;2.80;;;18.30;80.70;;;;;;5027622;28;20025;-77
2021/10/29 05:09:33;;;;;;;3.85;2.55;;;18.30;80.60;;;;;;5027318;28;20481;-77
2021/10/29 05:11:59;;;;;;;4.25;2.63;;;18.30;80.60;;;;;;5027468;28;20022;-77
2021/10/29 05:14:24;;;;;;;3.38;2.15;;;18.30;80.60;;;;;;5027941;28;20481;-77
2021/10/29 05:16:50;;;;;;;4.38;2.83;;;18.30;80.50;;;;;;5027120;28;20026;-77
2021/10/29 05:19:17;;;;;;;4.10;2.50;;;18.30;80.50;;;;;;5027785;28;20029;-76
2021/10/29 05:21:43;;;;;;;3.97;2.63;;;18.30;80.60;;;;;;5030501;28;20033;-77
2021/10/29 05:24:09;;;;;;;3.90;3.13;;;18.30;80.60;;;;;;5030739;28;20057;-77
2021/10/29 05:26:37;;;;;;;3.10;2.15;;;18.40;80.60;;;;;;5030620;28;20469;-78
2021/10/29 05:29:03;;;;;;;3.58;2.30;;;18.40;80.70;;;;;;5030620;28;20566;-78
2021/10/29 05:31:28;;;;;;;4.72;2.42;;;18.40;80.70;;;;;;5030636;28;20473;-78
2021/10/29 05:33:54;;;;;;;4.00;2.80;;;18.40;80.70;;;;;;5031016;28;20030;-78
2021/10/29 05:36:20;;;;;;;4.43;2.30;;;18.40;80.70;;;;;;5030696;28;20018;-79
2021/10/29 05:38:45;;;;;;;5.07;2.70;;;18.40;80.60;;;;;;5029111;28;20545;-78
2021/10/29 05:41:12;;;;;;;5.30;2.92;;;18.40;80.60;;;;;;5030522;28;20386;-77
2021/10/29 05:43:37;;;;;;;4.05;2.38;;;18.40;80.50;;;;;;5030154;28;20120;-78
2021/10/29 05:46:03;;;;;;;5.50;2.95;;;18.50;80.50;;;;;;5030171;28;20108;-78
2021/10/29 05:48:29;;;;;;;4.00;2.45;;;18.50;80.50;;;;;;5030311;28;20086;-77
2021/10/29 05:50:56;;;;;;;3.00;2.13;;;18.50;80.50;;;;;;5030637;28;20049;-79
2021/10/29 05:55:57;;;;;;;2.70;1.77;;;18.50;80.60;;;;;;5030409;28;20039;-80
2021/10/29 05:58:23;;;;;;;3.08;2.30;;;18.50;80.50;;;;;;5030571;28;20022;-78
2021/10/29 06:00:50;;;;;;;4.53;2.50;;;18.50;80.40;;;;;;5028873;28;20113;-77
2021/10/29 06:03:15;;;;;;;2.55;2.15;;;18.50;80.30;;;;;;5030195;28;20014;-77
2021/10/29 06:05:41;;;;;;;3.88;1.88;;;18.50;80.30;;;;;;5029966;28;20041;-78
2021/10/29 06:08:07;;;;;;;3.33;2.50;;;18.50;80.30;;;;;;5030126;28;20108;-77
2021/10/29 06:10:32;;;;;;;3.35;2.35;;;18.50;80.20;;;;;;5029877;28;20079;-78
2021/10/29 06:12:58;;;;;;;4.72;2.20;;;18.60;80.10;;;;;;5030156;28;20029;-78
2021/10/29 06:15:24;;;;;;;4.47;2.53;;;18.60;80.20;;;;;;5030308;28;20061;-78
2021/10/29 06:17:51;;;;;;;3.70;2.42;;;18.60;80.10;;;;;;5029764;28;20032;-79
2021/10/29 06:20:17;;;;;;;3.15;2.15;;;18.60;80.10;;;;;;5029941;28;20499;-77
2021/10/29 06:22:46;;;;;;;4.13;2.38;;;18.60;80.10;;;;;;5029433;28;20025;-77
2021/10/29 06:25:15;;;;;;;3.10;2.42;;;18.60;80.00;;;;;;5029804;28;20082;-77
2021/10/29 06:30:26;;;;;;;3.65;2.42;;;18.60;79.70;;;;;;5030346;28;20078;-81
2021/10/29 06:32:52;;;;;;;3.78;2.55;;;18.60;79.70;;;;;;5029338;28;20100;-82
2021/10/29 06:35:18;;;;;;;5.25;2.08;;;18.60;79.60;;;;;;5029716;28;20033;-80
2021/10/29 06:37:43;;;;;;;3.55;2.15;;;18.60;79.50;;;;;;5029461;28;20032;-79
2021/10/29 06:40:12;;;;;;;4.28;2.00;;;18.60;79.60;;;;;;5029742;28;20025;-80
2021/10/29 06:42:38;;;;;;;4.20;3.05;;;18.60;79.80;;;;;;5030490;28;20461;-79
2021/10/29 06:45:23;;;;;;;7.22;4.60;;;18.60;80.80;;;;;;5029466;28;20045;-77
2021/10/29 07:01:23;;;;;;;8.07;5.10;;;18.70;82.40;;;;;;5048481;28;20616;-79
2021/10/29 07:41:36;;;;;;;4.30;2.60;;;18.80;81.40;;;;;;5046144;28;20093;-83
2021/10/29 07:44:11;;;;;;;6.38;3.17;;;18.80;81.20;;;;;;5046654;28;20037;-81
2021/10/29 07:46:37;;;;;;;5.97;3.00;;;18.80;81.10;;;;;;5048034;28;20029;-80
2021/10/29 07:49:05;;;;;;;4.75;3.08;;;18.90;81.00;;;;;;5048047;28;20029;-81
2021/10/29 07:51:31;;;;;;;5.38;3.17;;;18.80;80.80;;;;;;5048229;28;20108;-79
2021/10/29 07:53:57;;;;;;;8.50;3.35;;;18.90;80.70;;;;;;5047647;28;20104;-80
2021/10/29 07:56:23;;;;;;;5.38;2.70;;;18.90;80.60;;;;;;5048585;28;20029;-83
2021/10/29 07:58:49;;;;;;;8.30;3.05;;;18.90;80.50;;;;;;5039733;28;20108;-82
2021/10/29 08:01:14;;;;;;;5.07;2.85;;;18.90;80.50;;;;;;5048700;28;20507;-79
2021/10/29 08:03:40;;;;;;;8.93;3.10;;;;;;;;;;5048129;28;20033;-81
2021/10/29 08:06:06;;;;;;;10.10;3.08;;;18.90;80.20;;;;;;5047871;28;20025;-81
2021/10/29 08:08:32;;;;;;;4.45;2.30;;;19.00;80.70;;;;;;5041247;28;20028;-83
2021/10/29 08:10:58;;;;;;;8.13;2.72;;;18.90;80.40;;;;;;5041617;28;20441;-83
2021/10/29 08:13:24;;;;;;;10.80;2.92;;;19.00;80.40;;;;;;5042120;28;20029;-81
2021/10/29 08:15:53;;;;;;;7.45;3.13;;;18.90;80.20;;;;;;5046566;28;20029;-83
2021/10/29 08:18:20;;;;;;;14.27;2.53;;;18.90;80.30;;;;;;5046931;28;20487;-79
2021/10/29 08:20:46;;;;;;;6.88;2.55;;;19.00;80.30;;;;;;5047440;28;20101;-80
2021/10/29 08:23:12;;;;;;;11.15;2.92;;;19.00;80.30;;;;;;5046440;28;20074;-81
2021/10/29 08:25:38;;;;;;;5.00;2.80;;;19.00;80.40;;;;;;5047760;28;20033;-81
2021/10/29 08:28:04;;;;;;;10.98;2.58;;;19.00;80.10;;;;;;5048046;28;20027;-80
2021/10/29 08:30:30;;;;;;;8.73;2.55;;;19.00;80.00;;;;;;5047837;28;20033;-80
2021/10/29 08:32:56;;;;;;;6.40;2.53;;;19.00;79.80;;;;;;5046718;28;20021;-81
2021/10/29 08:35:22;;;;;;;6.57;2.55;;;19.00;79.70;;;;;;5048260;28;20029;-84
2021/10/29 08:37:50;;;;;;;8.43;2.83;;;19.00;79.70;;;;;;5046023;28;20025;-83
2021/10/29 08:40:17;;;;;;;5.90;2.83;;;19.10;79.60;;;;;;5047434;28;20033;-81
2021/10/29 08:42:44;;;;;;;4.50;2.55;;;19.10;79.60;;;;;;5046608;28;20517;-83
2021/10/29 08:45:11;;;;;;;8.30;3.17;;;19.10;79.30;;;;;;5047796;28;20047;-82
2021/10/29 08:47:39;;;;;;;4.93;2.63;;;19.10;80.00;;;;;;5047637;28;20480;-81
2021/10/29 08:50:07;;;;;;;6.63;2.83;;;19.10;79.20;;;;;;5047210;28;20096;-82
2021/10/29 08:52:33;;;;;;;7.50;3.17;;;19.10;79.20;;;;;;5046636;28;20021;-81
2021/10/29 08:54:59;;;;;;;9.40;3.20;;;19.10;79.10;;;;;;5047623;28;20484;-83
2021/10/29 08:57:26;;;;;;;8.95;2.40;;;19.10;78.90;;;;;;5051572;28;20030;-80
2021/10/29 08:59:54;;;;;;;6.50;2.90;;;19.10;78.90;;;;;;5050287;28;20374;-84
2021/10/29 09:02:33;;;;;;;5.07;2.47;;;19.10;78.80;;;;;;5050293;28;20021;-80
2021/10/29 09:05:16;;;;;;;5.65;2.22;;;19.20;78.70;;;;;;5050977;28;20032;-82
2021/10/29 09:32:24;;;;;;;5.88;2.72;;;19.30;77.90;;;;;;5050606;28;20058;-80
2021/10/29 09:35:16;;;;;;;4.28;2.50;;;19.30;77.80;;;;;;5050288;28;20033;-80
2021/10/29 09:37:54;;;;;;;3.80;2.08;;;19.40;77.80;;;;;;5047592;28;20075;-79
2021/10/29 09:40:21;;;;;;;4.03;2.15;;;19.40;77.70;;;;;;5050060;28;20029;-79
2021/10/29 09:42:49;;;;;;;5.13;2.50;;;19.40;77.70;;;;;;5049402;27;20032;-81
2021/10/29 09:45:22;;;;;;;5.70;2.60;;;19.40;77.60;;;;;;5050197;28;20041;-80
2021/10/29 09:48:06;;;;;;;3.90;2.00;;;19.50;77.50;;;;;;5050177;28;20035;-81
2021/10/29 09:50:36;;;;;;;4.88;2.20;;;19.50;77.40;;;;;;5050102;28;20056;-86
2021/10/29 09:53:48;;;;;;;4.05;2.22;;;19.50;77.20;;;;;;5049438;28;20030;-82
2021/10/29 09:56:12;;;;;;;3.78;1.92;;;19.50;77.10;;;;;;5053578;28;20124;-83
2021/10/29 09:58:44;;;;;;;7.45;2.70;;;19.60;77.00;;;;;;5039834;28;20086;-79
2021/10/29 10:01:10;;;;;;;8.57;2.17;;;19.60;77.00;;;;;;5049333;28;20032;-81
2021/10/29 10:03:40;;;;;;;6.35;2.85;;;19.60;77.00;;;;;;5035962;28;20033;-79
2021/10/29 10:06:06;;;;;;;5.75;2.70;;;19.60;77.00;;;;;;5029043;28;20064;-79
2021/10/29 10:08:33;;;;;;;6.88;2.85;;;19.60;77.10;;;;;;5037253;28;20028;-79
2021/10/29 10:10:59;;;;;;;6.40;2.58;;;19.70;77.20;;;;;;5050592;28;20425;-79
2021/10/29 10:13:26;;;;;;;7.68;2.33;;;19.70;77.20;;;;;;5058830;28;20420;-81
2021/10/29 10:15:55;;;;;;;10.00;2.70;;;19.70;77.40;;;;;;5050066;28;20444;-80
2021/10/29 10:18:23;;;;;;;8.73;2.40;;;19.70;77.40;;;;;;5048654;28;20483;-79
2021/10/29 10:20:50;;;;;;;17.27;3.70;;;19.70;77.60;;;;;;5049544;28;20036;-79
2021/10/29 10:23:20;;;;;;;5.90;3.00;;;19.70;78.60;;;;;;5048695;28;20044;-80
2021/10/29 10:44:48;;;;;;;17.17;3.80;;;19.80;78.90;;;;;;5048857;28;20041;-78
2021/10/29 10:47:21;;;;;;;11.00;2.45;;;19.90;79.20;;;;;;5049309;28;20412;-77
2021/10/29 10:50:01;;;;;;;14.27;2.80;;;19.80;79.00;;;;;;5049192;28;20070;-76
2021/10/29 10:52:31;;;;;;;13.02;2.70;;;19.80;79.10;;;;;;5049580;28;20078;-76
2021/10/29 10:55:05;;;;;;;14.45;2.42;;;19.90;79.20;;;;;;5049720;28;20077;-76
2021/10/29 11:05:37;;;;;;;5.82;2.40;;;19.90;79.30;;;;;;5048993;28;20045;-78
2021/10/29 11:11:03;;;;;;;11.95;3.17;;;19.80;79.30;;;;;;5029626;28;20040;-79
2021/10/29 11:13:43;;;;;;;6.03;2.22;;;19.80;79.30;;;;;;5029132;28;20042;-78
2021/10/29 11:16:31;;;;;;;7.47;2.70;;;19.90;79.30;;;;;;5030945;28;20109;-77
2021/10/29 11:19:25;;;;;;;9.85;2.55;;;19.90;79.30;;;;;;5040470;28;20458;-76
2021/10/29 11:21:57;;;;;;;5.60;2.63;;;19.80;79.20;;;;;;5038226;28;20085;-76
2021/10/29 11:24:36;;;;;;;8.77;2.90;;;19.80;79.20;;;;;;5038664;28;20025;-76
2021/10/29 11:27:16;;;;;;;13.00;4.13;;;19.90;79.40;;;;;;5038329;28;20545;-75
2021/10/29 11:29:52;;;;;;;17.90;8.57;;;19.80;80.00;;;;;;5033194;28;20085;-76
2021/10/29 11:32:25;;;;;;;7.75;3.78;;;19.80;80.30;;;;;;5037675;28;20025;-75
2021/10/29 11:34:59;;;;;;;6.25;3.25;;;19.80;80.80;;;;;;5035327;28;20021;-76
2021/10/29 11:37:26;;;;;;;16.50;4.68;;;19.80;80.50;;;;;;5036298;28;20030;-76
2021/10/29 11:39:53;;;;;;;10.00;3.38;;;19.80;80.90;;;;;;5037668;28;20040;-76
2021/10/29 11:42:20;;;;;;;11.02;4.10;;;19.80;80.90;;;;;;5037908;28;20431;-76
2021/10/29 11:44:48;;;;;;;13.73;4.05;;;19.80;81.00;;;;;;5035455;28;20025;-76
2021/10/29 11:47:14;;;;;;;7.80;3.28;;;19.80;81.20;;;;;;5037052;28;20021;-76
2021/10/29 11:49:39;;;;;;;9.68;3.20;;;19.70;81.20;;;;;;5032606;28;20497;-76
2021/10/29 11:52:06;;;;;;;8.50;3.17;;;19.80;81.30;;;;;;5035392;28;20028;-76
2021/10/29 11:54:38;;;;;;;9.88;3.25;;;19.70;81.50;;;;;;5041384;28;20033;-77
2021/10/29 12:00:14;;;;;;;7.30;2.83;;;19.70;81.20;;;;;;5048296;28;20039;-78
2021/10/29 12:05:59;;;;;;;5.70;2.88;;;19.60;81.10;;;;;;5030845;28;20060;-80
2021/10/29 12:08:30;;;;;;;7.75;2.40;;;19.60;81.10;;;;;;5028570;28;20033;-80
2021/10/29 12:11:05;;;;;;;10.68;2.60;;;19.60;81.20;;;;;;5028622;28;20017;-80
2021/10/29 12:13:33;;;;;;;10.48;3.15;;;19.60;81.30;;;;;;5028226;28;20022;-80
2021/10/29 12:15:59;;;;;;;12.02;3.25;;;19.60;83.00;;;;;;5028303;28;20026;-79
2021/10/29 12:18:37;;;;;;;9.05;3.40;;;19.60;83.60;;;;;;5028508;28;20109;-78
2021/10/29 12:21:03;;;;;;;7.50;2.97;;;19.60;86.00;;;;;;5028066;28;20034;-81
2021/10/29 12:23:30;;;;;;;6.85;3.53;;;19.60;86.30;;;;;;5028035;28;20066;-79
2021/10/29 12:28:27;;;;;;;7.90;2.85;;;19.60;88.40;;;;;;5028351;28;20385;-77
2021/10/29 12:30:57;;;;;;;7.45;3.50;;;19.60;89.90;;;;;;5036705;28;20076;-78
2021/10/29 12:33:57;;;;;;;5.78;3.10;;;19.60;90.00;;;;;;5033022;28;20020;-78
2021/10/29 13:03:37;;;;;;;7.20;3.45;;;19.40;90.20;;;;;;5030983;28;20397;-80
2021/10/29 13:06:06;;;;;;;7.03;3.03;;;19.40;90.20;;;;;;5031150;28;20548;-80
2021/10/29 13:08:35;;;;;;;7.78;2.65;;;19.40;90.00;;;;;;5031001;28;20485;-80
2021/10/29 13:11:01;;;;;;;6.70;2.67;;;19.40;90.00;;;;;;5031078;28;20025;-80
2021/10/29 13:13:32;;;;;;;6.72;2.58;;;19.40;89.90;;;;;;5031025;28;20162;-77
2021/10/29 13:16:03;;;;;;;5.30;1.92;;;19.40;89.80;;;;;;5031202;28;20104;-79
2021/10/29 13:18:40;;;;;;;4.95;2.17;;;19.40;89.70;;;;;;5030896;28;20452;-80
2021/10/29 13:24:26;;;;;;;7.07;2.33;;;19.40;89.20;;;;;;5030528;28;20048;-81
2021/10/29 13:35:06;;;;;;;5.13;2.92;;;19.40;88.50;;;;;;5030767;28;20036;-79
2021/10/29 13:51:21;;;;;;;3.58;1.75;;;19.40;88.40;;;;;;5030525;28;20082;-78
2021/10/29 14:34:38;;;;;;;4.68;1.95;;;19.40;85.80;;;;;;4968615;28;20078;-79
2021/10/29 14:52:49;;;;;;;3.90;1.50;;;19.40;86.00;;;;;;5048694;28;20362;-78
2021/10/29 15:05:58;;;;;;;6.30;1.70;;;19.40;86.30;;;;;;5048810;28;20101;-75
2021/10/29 15:17:06;;;;;;;2.67;1.60;;;19.30;86.50;;;;;;5048278;28;20032;-77
2021/10/29 15:25:35;;;;;;;6.75;1.80;;;19.40;86.90;;;;;;5041942;28;20048;-78
2021/10/29 15:33:47;;;;;;;4.18;1.90;;;19.50;86.80;;;;;;5014800;28;20057;-77
2021/10/29 15:41:42;;;;;;;5.22;1.63;;;19.70;86.90;;;;;;5030894;28;20118;-76
2021/10/29 15:44:15;;;;;;;4.57;1.60;;;19.70;86.80;;;;;;5028771;28;20066;-77
2021/10/29 15:46:49;;;;;;;5.90;1.60;;;19.80;86.80;;;;;;5031476;28;20413;-76
2021/10/29 15:51:56;;;;;;;4.55;1.08;;;20.00;86.40;;;;;;5028526;28;20061;-78
2021/10/29 15:54:22;;;;;;;3.67;1.40;;;20.00;86.00;;;;;;5028812;28;20414;-79
2021/10/29 16:18:21;;;;;;;7.18;2.17;;;20.20;84.40;;;;;;5028112;28;20503;-79
2021/10/29 16:20:46;;;;;;;4.45;1.98;;;20.30;84.70;;;;;;5027843;28;20030;-78
2021/10/29 16:23:12;;;;;;;3.83;1.52;;;20.30;84.50;;;;;;5028038;28;20053;-78
2021/10/29 16:25:52;;;;;;;3.17;1.50;;;20.40;84.50;;;;;;5028112;28;20031;-80
2021/10/29 16:28:20;;;;;;;6.28;1.90;;;20.40;84.40;;;;;;5026807;28;20033;-82
2021/10/29 16:30:46;;;;;;;9.20;1.70;;;20.40;84.40;;;;;;5043452;28;20029;-84
2021/10/29 16:33:25;;;;;;;4.63;1.73;;;20.50;84.50;;;;;;5069063;28;20026;-82
2021/10/29 16:35:52;;;;;;;5.53;1.50;;;20.50;84.20;;;;;;5029938;28;20022;-81
2021/10/29 16:38:18;;;;;;;4.68;1.70;;;20.60;84.00;;;;;;5045416;28;20068;-81
2021/10/29 16:40:44;;;;;;;4.30;1.88;;;20.50;83.70;;;;;;5038336;28;20119;-80
2021/10/29 16:43:09;;;;;;;3.60;1.42;;;20.60;83.70;;;;;;5030593;28;20405;-82
2021/10/29 16:45:43;;;;;;;3.30;1.60;;;20.60;83.70;;;;;;5046092;28;20408;-82
2021/10/29 16:48:10;;;;;;;6.95;1.63;;;20.70;83.50;;;;;;5047138;28;20028;-80
2021/10/29 16:50:35;;;;;;;3.80;1.50;;;20.70;83.40;;;;;;5033980;28;20104;-81
2021/10/29 16:53:01;;;;;;;5.75;1.63;;;20.70;83.30;;;;;;5029854;28;20499;-81
2021/10/29 16:55:27;;;;;;;4.63;1.52;;;20.70;83.30;;;;;;5041455;28;20052;-77
2021/10/29 16:57:53;;;;;;;2.33;1.13;;;20.80;83.30;;;;;;5045901;28;20381;-80
2021/10/29 17:00:20;;;;;;;3.17;1.50;;;20.80;83.10;;;;;;5037669;28;20022;-79
2021/10/29 17:02:45;;;;;;;10.35;1.90;;;20.90;82.90;;;;;;5040949;28;20036;-82
2021/10/29 17:05:12;;;;;;;3.20;1.50;;;20.90;82.90;;;;;;5029125;28;20033;-84
2021/10/29 17:07:39;;;;;;;3.35;1.50;;;20.90;82.80;;;;;;5043039;28;20408;-82
2021/10/29 17:10:09;;;;;;;3.05;1.30;;;21.00;82.60;;;;;;5035562;28;20032;-84
2021/10/29 17:12:41;;;;;;;2.97;1.42;;;21.00;82.50;;;;;;5033858;28;20029;-84
2021/10/29 17:15:12;;;;;;;6.43;2.17;;;21.00;82.30;;;;;;5044336;28;20029;-82
2021/10/29 17:17:38;;;;;;;3.38;1.48;;;21.00;82.30;;;;;;5046629;28;20081;-81
2021/10/29 17:20:06;;;;;;;3.40;1.80;;;21.10;82.40;;;;;;5037597;28;20503;-78
2021/10/29 17:22:32;;;;;;;2.65;1.55;;;21.10;82.30;;;;;;5044402;28;20476;-81
2021/10/29 17:24:58;;;;;;;3.60;1.50;;;21.10;82.30;;;;;;5050908;28;20072;-81
2021/10/29 17:27:24;;;;;;;4.63;1.40;;;21.10;82.20;;;;;;5033792;28;20480;-84
2021/10/29 17:29:50;;;;;;;4.18;1.73;;;21.20;81.60;;;;;;5058998;27;20036;-82
2021/10/29 17:32:16;;;;;;;3.72;1.40;;;21.30;82.10;;;;;;5045884;28;20025;-84
2021/10/29 17:34:47;;;;;;;5.13;1.60;;;21.30;81.90;;;;;;5058615;27;20550;-81
2021/10/29 17:37:14;;;;;;;4.47;1.77;;;21.30;81.90;;;;;;5033592;28;20018;-78
2021/10/29 17:39:40;;;;;;;4.13;1.42;;;21.30;81.60;;;;;;5034797;28;20082;-75
2021/10/29 17:42:08;;;;;;;5.85;1.58;;;21.30;81.50;;;;;;5037602;28;20025;-77
2021/10/29 17:44:33;;;;;;;5.22;2.00;;;21.30;81.30;;;;;;5042183;28;20029;-77